Time;durP1;ratioP1;P1;durP2;ratioP2;P2;SDS_P1;SDS_P2;PMS_P1;PMS_P2;Temp;Humidity;BMP_temperature;BMP_pressure;BME280_temperature;BME280_humidity;BME280_pressure;Samples;Min_cycle;Max_cycle;Signal;HPM_P1;HPM_P2
2022/07/24 00:01:22;;;;;;;;;;;;;;;;;;4939098;29;19914;-82
2022/07/24 00:03:47;;;;;;;;;;;;;;;;;;4955986;28;20386;-81
2022/07/24 00:06:13;;;;;;;;;;;;;;;;;;4955865;29;19921;-82
2022/07/24 00:08:40;;;;;;;;;;;;;;;;;;4922995;29;19915;-82
2022/07/24 00:11:05;;;;;;;;;;;;;;;;;;4923295;29;19918;-80
2022/07/24 00:13:31;;;;;;;;;;;;;;;;;;4923680;29;20396;-82
2022/07/24 00:15:56;;;;;;;;;;;;;;;;;;4957251;29;19973;-81
2022/07/24 00:18:21;;;;;;;;;;;;;;;;;;4939940;29;19914;-82
2022/07/24 00:20:47;;;;;;;;;;;;;;;;;;4939619;29;19965;-83
2022/07/24 00:23:12;;;;;;;;;;;;;;;;;;4958598;28;19915;-81
2022/07/24 00:25:37;;;;;;;;;;;;;;;;;;4940348;29;19915;-80
2022/07/24 00:28:03;;;;;;;;;;;;;;;;;;4957855;29;20345;-82
2022/07/24 00:30:28;;;;;;;;;;;;;;;;;;4957358;29;19921;-82
2022/07/24 00:32:53;;;;;;;;;;;;;;;;;;4956213;28;19918;-83
2022/07/24 00:35:19;;;;;;;;;;;;;;;;;;4957420;29;19915;-82
2022/07/24 00:37:46;;;;;;;;;;;;;;;;;;4938621;29;19962;-82
2022/07/24 00:40:11;;;;;;;;;;;;;;;;;;4955813;29;19915;-81
2022/07/24 00:42:37;;;;;;;;;;;;;;;;;;4956034;28;19922;-83
2022/07/24 00:45:02;;;;;;;;;;;;;;;;;;4923671;29;19985;-82
2022/07/24 00:47:27;;;;;;;;;;;;;;;;;;4939534;29;19922;-82
2022/07/24 00:49:53;;;;;;;;;;;;;;;;;;4939201;29;19914;-83
2022/07/24 00:52:18;;;;;;;;;;;;;;;;;;4955861;28;19926;-83
2022/07/24 00:54:43;;;;;;;;;;;;;;;;;;4908345;29;19921;-81
2022/07/24 00:57:09;;;;;;;;;;;;;;;;;;4957828;29;19929;-83
2022/07/24 00:59:34;;;;;;;;;;;;;;;;;;4924761;29;19910;-82
2022/07/24 01:01:59;;;;;;;;;;;;;;;;;;4956134;28;19931;-80
2022/07/24 01:04:25;;;;;;;;;;;;;;;;;;4944164;29;19914;-81
2022/07/24 01:06:50;;;;;;;;;;;;;;;;;;4957933;29;20178;-82
2022/07/24 01:09:15;;;;;;;;;;;;;;;;;;4957238;29;19969;-82
2022/07/24 01:11:41;;;;;;;;;;;;;;;;;;4940371;28;19976;-82
2022/07/24 01:14:06;;;;;;;;;;;;;;;;;;4938484;29;20297;-83
2022/07/24 01:16:32;;;;;;;;;;;;;;;;;;4956425;29;19915;-82
2022/07/24 01:18:57;;;;;;;;;;;;;;;;;;4938703;29;20358;-83
2022/07/24 01:21:22;;;;;;;;;;;;;;;;;;4939439;29;19968;-83
2022/07/24 01:23:48;;;;;;;;;;;;;;;;;;4956492;28;20004;-82
2022/07/24 01:26:13;;;;;;;;;;;;;;;;;;4956342;29;20386;-83
2022/07/24 01:28:38;;;;;;;;;;;;;;;;;;4955533;29;19921;-82
2022/07/24 01:31:04;;;;;;;;;;;;;;;;;;4954187;29;19918;-83
2022/07/24 01:33:29;;;;;;;;;;;;;;;;;;4955940;28;20366;-82
2022/07/24 01:35:55;;;;;;;;;;;;;;;;;;4954448;29;19954;-84
2022/07/24 01:38:20;;;;;;;;;;;;;;;;;;4921363;29;19914;-84
2022/07/24 01:40:46;;;;;;;;;;;;;;;;;;4937079;29;19919;-83
2022/07/24 01:43:11;;;;;;;;;;;;;;;;;;4936946;29;19921;-83
2022/07/24 01:45:36;;;;;;;;;;;;;;;;;;4937657;29;19969;-82
2022/07/24 01:48:02;;;;;;;;;;;;;;;;;;4954981;29;19914;-82
2022/07/24 01:50:28;;;;;;;;;;;;;;;;;;4955099;29;20358;-82
2022/07/24 01:52:53;;;;;;;;;;;;;;;;;;4955104;28;20267;-83
2022/07/24 01:55:18;;;;;;;;;;;;;;;;;;4939312;29;19914;-82
2022/07/24 01:57:44;;;;;;;;;;;;;;;;;;4941791;29;20404;-81
2022/07/24 02:00:12;;;;;;;;;;;;;;;;;;4942778;29;19914;-83
2022/07/24 02:02:40;;;;;;;;;;;;;;;;;;4959886;28;19914;-83
2022/07/24 02:05:06;;;;;;;;;;;;;;;;;;4960092;29;19926;-82
2022/07/24 02:07:31;;;;;;;;;;;;;;;;;;4927205;29;19937;-82
2022/07/24 02:09:56;;;;;;;;;;;;;;;;;;4959660;29;19958;-82
2022/07/24 02:12:22;;;;;;;;;;;;;;;;;;4940473;29;19918;-83
2022/07/24 02:14:47;;;;;;;;;;;;;;;;;;4940793;29;19914;-82
2022/07/24 02:17:12;;;;;;;;;;;;;;;;;;4924849;29;19914;-83
2022/07/24 02:19:38;;;;;;;;;;;;;;;;;;4909266;29;19918;-82
2022/07/24 02:22:03;;;;;;;;;;;;;;;;;;4940348;29;19915;-82
2022/07/24 02:24:29;;;;;;;;;;;;;;;;;;4940361;29;19915;-82
2022/07/24 02:26:54;;;;;;;;;;;;;;;;;;4940668;29;19930;-83
2022/07/24 02:29:20;;;;;;;;;;;;;;;;;;4957768;29;19917;-83
2022/07/24 02:31:45;;;;;;;;;;;;;;;;;;4924209;28;19918;-83
2022/07/24 02:34:10;;;;;;;;;;;;;;;;;;4940327;29;19914;-82
2022/07/24 02:36:36;;;;;;;;;;;;;;;;;;4957496;29;19923;-83
2022/07/24 02:39:01;;;;;;;;;;;;;;;;;;4957475;29;19918;-82
2022/07/24 02:41:27;;;;;;;;;;;;;;;;;;4957442;28;19993;-83
2022/07/24 02:43:52;;;;;;;;;;;;;;;;;;4940252;29;20295;-84
2022/07/24 02:46:17;;;;;;;;;;;;;;;;;;4957324;29;20298;-84
2022/07/24 02:48:43;;;;;;;;;;;;;;;;;;4957485;29;19962;-83
2022/07/24 02:51:08;;;;;;;;;;;;;;;;;;4957063;29;19922;-83
2022/07/24 02:53:33;;;;;;;;;;;;;;;;;;4956878;28;19914;-83
2022/07/24 02:55:59;;;;;;;;;;;;;;;;;;4956820;29;19923;-83
2022/07/24 02:58:24;;;;;;;;;;;;;;;;;;4956765;29;19993;-82
2022/07/24 03:00:49;;;;;;;;;;;;;;;;;;4956865;29;20374;-82
2022/07/24 03:03:15;;;;;;;;;;;;;;;;;;4939517;29;19915;-83
2022/07/24 03:05:40;;;;;;;;;;;;;;;;;;4939896;29;19969;-84
2022/07/24 03:08:05;;;;;;;;;;;;;;;;;;4922800;29;19921;-83
2022/07/24 03:10:31;;;;;;;;;;;;;;;;;;4923958;29;19915;-83
2022/07/24 03:12:56;;;;;;;;;;;;;;;;;;4956346;28;19929;-83
2022/07/24 03:15:21;;;;;;;;;;;;;;;;;;4939411;29;19961;-83
2022/07/24 03:17:47;;;;;;;;;;;;;;;;;;4939794;29;20013;-83
2022/07/24 03:20:12;;;;;;;;;;;;;;;;;;4939555;29;19918;-82
2022/07/24 03:22:37;;;;;;;;;;;;;;;;;;4923433;29;19918;-83
2022/07/24 03:25:03;;;;;;;;;;;;;;;;;;4939530;29;20013;-83
2022/07/24 03:27:29;;;;;;;;;;;;;;;;;;4956644;29;20271;-83
2022/07/24 03:29:54;;;;;;;;;;;;;;;;;;4940032;29;20009;-83
2022/07/24 03:32:20;;;;;;;;;;;;;;;;;;4938988;29;19918;-83
2022/07/24 03:34:45;;;;;;;;;;;;;;;;;;4956332;29;19914;-82
2022/07/24 03:37:10;;;;;;;;;;;;;;;;;;4939306;29;19914;-83
2022/07/24 03:39:36;;;;;;;;;;;;;;;;;;4956511;29;20005;-83
2022/07/24 03:42:01;;;;;;;;;;;;;;;;;;4956245;28;19922;-82
2022/07/24 03:44:26;;;;;;;;;;;;;;;;;;4923207;29;19918;-83
2022/07/24 03:46:52;;;;;;;;;;;;;;;;;;4922982;29;20306;-81
2022/07/24 03:49:17;;;;;;;;;;;;;;;;;;4939070;29;19921;-82
2022/07/24 03:51:43;;;;;;;;;;;;;;;;;;4938632;28;20266;-82
2022/07/24 03:54:08;;;;;;;;;;;;;;;;;;4955654;29;19938;-82
2022/07/24 03:56:33;;;;;;;;;;;;;;;;;;4939026;29;19996;-83
2022/07/24 03:58:59;;;;;;;;;;;;;;;;;;4956008;29;19926;-84
2022/07/24 04:01:24;;;;;;;;;;;;;;;;;;4955805;29;19962;-83
2022/07/24 04:03:49;;;;;;;;;;;;;;;;;;4955482;28;19922;-83
2022/07/24 04:06:15;;;;;;;;;;;;;;;;;;4955422;29;19914;-83
2022/07/24 04:08:40;;;;;;;;;;;;;;;;;;4955725;29;20005;-84
2022/07/24 04:11:07;;;;;;;;;;;;;;;;;;4955514;29;19914;-84
2022/07/24 04:13:32;;;;;;;;;;;;;;;;;;4922904;29;19915;-83
2022/07/24 04:15:58;;;;;;;;;;;;;;;;;;4955655;29;19914;-84
2022/07/24 04:18:23;;;;;;;;;;;;;;;;;;4938342;29;19914;-83
2022/07/24 04:20:49;;;;;;;;;;;;;;;;;;4957065;29;19914;-84
2022/07/24 04:23:14;;;;;;;;;;;;;;;;;;4939920;29;19921;-83
2022/07/24 04:25:39;;;;;;;;;;;;;;;;;;4955671;29;19958;-83
2022/07/24 04:28:05;;;;;;;;;;;;;;;;;;4925933;29;19915;-84
2022/07/24 04:30:30;;;;;;;;;;;;;;;;;;4970650;29;19938;-83
2022/07/24 04:32:56;;;;;;;;;;;;;;;;;;4967943;28;19923;-82
2022/07/24 04:35:21;;;;;;;;;;;;;;;;;;4969459;29;19981;-83
2022/07/24 04:37:47;;;;;;;;;;;;;;;;;;4955373;29;19918;-82
2022/07/24 04:40:12;;;;;;;;;;;;;;;;;;4969809;29;19918;-83
2022/07/24 04:42:39;;;;;;;;;;;;;;;;;;4968481;28;20737;-83
2022/07/24 04:45:05;;;;;;;;;;;;;;;;;;4942716;29;19929;-85
2022/07/24 04:47:30;;;;;;;;;;;;;;;;;;4955474;29;19969;-85
2022/07/24 04:49:55;;;;;;;;;;;;;;;;;;4938215;29;20397;-84
2022/07/24 04:52:21;;;;;;;;;;;;;;;;;;4955707;28;20574;-84
2022/07/24 04:54:46;;;;;;;;;;;;;;;;;;4955172;29;19926;-84
2022/07/24 04:57:11;;;;;;;;;;;;;;;;;;4922038;29;19921;-83
2022/07/24 04:59:37;;;;;;;;;;;;;;;;;;4937346;29;19914;-83
2022/07/24 05:02:02;;;;;;;;;;;;;;;;;;4954471;28;20017;-83
2022/07/24 05:04:28;;;;;;;;;;;;;;;;;;4937297;29;19977;-83
2022/07/24 05:06:53;;;;;;;;;;;;;;;;;;4937393;29;19910;-82
2022/07/24 05:09:18;;;;;;;;;;;;;;;;;;4954568;29;19914;-84
2022/07/24 05:11:44;;;;;;;;;;;;;;;;;;4937250;28;20408;-84
2022/07/24 05:14:09;;;;;;;;;;;;;;;;;;4937181;29;19915;-83
2022/07/24 05:16:34;;;;;;;;;;;;;;;;;;4937290;29;19910;-83
2022/07/24 05:19:00;;;;;;;;;;;;;;;;;;4921701;29;20010;-83
2022/07/24 05:21:25;;;;;;;;;;;;;;;;;;4936978;29;20283;-83
2022/07/24 05:23:51;;;;;;;;;;;;;;;;;;4954084;28;19915;-84
2022/07/24 05:26:16;;;;;;;;;;;;;;;;;;4937241;29;20436;-84
2022/07/24 05:28:41;;;;;;;;;;;;;;;;;;4937147;29;20077;-83
2022/07/24 05:31:08;;;;;;;;;;;;;;;;;;4953488;28;19918;-84
2022/07/24 05:33:33;;;;;;;;;;;;;;;;;;4953820;28;19957;-83
2022/07/24 05:35:58;;;;;;;;;;;;;;;;;;4954216;29;19993;-83
2022/07/24 05:38:24;;;;;;;;;;;;;;;;;;4954180;29;19915;-83
2022/07/24 05:40:49;;;;;;;;;;;;;;;;;;4936978;29;20052;-83
2022/07/24 05:43:16;;;;;;;;;;;;;;;;;;4953878;28;19915;-84
2022/07/24 05:45:41;;;;;;;;;;;;;;;;;;4954058;29;19915;-84
2022/07/24 05:48:07;;;;;;;;;;;;;;;;;;4954155;29;20013;-83
2022/07/24 05:50:32;;;;;;;;;;;;;;;;;;4953975;29;20417;-84
2022/07/24 05:52:57;;;;;;;;;;;;;;;;;;4920774;29;19970;-84
2022/07/24 05:55:23;;;;;;;;;;;;;;;;;;4921594;29;19970;-83
2022/07/24 05:57:48;;;;;;;;;;;;;;;;;;4954229;29;20374;-82
2022/07/24 06:00:14;;;;;;;;;;;;;;;;;;4905779;29;19915;-84
2022/07/24 06:02:39;;;;;;;;;;;;;;;;;;4937228;29;19997;-83
2022/07/24 06:05:04;;;;;;;;;;;;;;;;;;4954114;29;19978;-83
2022/07/24 06:07:30;;;;;;;;;;;;;;;;;;4921231;29;19934;-83
2022/07/24 06:09:55;;;;;;;;;;;;;;;;;;4954260;29;19914;-83
2022/07/24 06:12:20;;;;;;;;;;;;;;;;;;4953708;28;19919;-83
2022/07/24 06:14:46;;;;;;;;;;;;;;;;;;4953752;29;19918;-83
2022/07/24 06:17:11;;;;;;;;;;;;;;;;;;4920902;29;19915;-82
2022/07/24 06:19:37;;;;;;;;;;;;;;;;;;4920669;29;20319;-82
2022/07/24 06:22:02;;;;;;;;;;;;;;;;;;4953501;28;19957;-83
2022/07/24 06:24:27;;;;;;;;;;;;;;;;;;4953402;29;19914;-82
2022/07/24 06:26:53;;;;;;;;;;;;;;;;;;4936421;29;20317;-83
2022/07/24 06:29:18;;;;;;;;;;;;;;;;;;4920840;29;19915;-84
2022/07/24 06:31:43;;;;;;;;;;;;;;;;;;4953259;28;19923;-83
2022/07/24 06:34:09;;;;;;;;;;;;;;;;;;4936005;29;19935;-82
2022/07/24 06:36:34;;;;;;;;;;;;;;;;;;4936626;29;19915;-83
2022/07/24 06:38:59;;;;;;;;;;;;;;;;;;4953660;29;19995;-84
2022/07/24 06:41:25;;;;;;;;;;;;;;;;;;4937850;29;20394;-82
2022/07/24 06:43:50;;;;;;;;;;;;;;;;;;4956714;28;19994;-82
2022/07/24 06:46:15;;;;;;;;;;;;;;;;;;4924162;29;20393;-84
2022/07/24 06:48:41;;;;;;;;;;;;;;;;;;4924146;29;19921;-83
2022/07/24 06:51:06;;;;;;;;;;;;;;;;;;4924240;29;19921;-84
2022/07/24 06:53:32;;;;;;;;;;;;;;;;;;4939776;29;19915;-84
2022/07/24 06:55:57;;;;;;;;;;;;;;;;;;4957063;29;19980;-84
2022/07/24 06:58:22;;;;;;;;;;;;;;;;;;4939534;29;19961;-84
2022/07/24 07:00:48;;;;;;;;;;;;;;;;;;4956660;29;19914;-83
2022/07/24 07:03:13;;;;;;;;;;;;;;;;;;4939093;29;20005;-83
2022/07/24 07:05:38;;;;;;;;;;;;;;;;;;4956369;29;19918;-83
2022/07/24 07:08:04;;;;;;;;;;;;;;;;;;4908125;29;20319;-84
2022/07/24 07:10:29;;;;;;;;;;;;;;;;;;4939581;29;19914;-83
2022/07/24 07:12:54;;;;;;;;;;;;;;;;;;4956653;28;19918;-82
2022/07/24 07:15:20;;;;;;;;;;;;;;;;;;4956916;29;20001;-84
2022/07/24 07:17:45;;;;;;;;;;;;;;;;;;4939942;29;20318;-84
2022/07/24 07:20:11;;;;;;;;;;;;;;;;;;4939527;29;19921;-84
2022/07/24 07:22:36;;;;;;;;;;;;;;;;;;4956154;28;19954;-82
2022/07/24 07:25:01;;;;;;;;;;;;;;;;;;4939657;29;20005;-83
2022/07/24 07:27:27;;;;;;;;;;;;;;;;;;4939474;29;19919;-84
2022/07/24 07:29:52;;;;;;;;;;;;;;;;;;4938963;29;19914;-83
2022/07/24 07:32:17;;;;;;;;;;;;;;;;;;4955793;28;20382;-85
2022/07/24 07:34:43;;;;;;;;;;;;;;;;;;4972997;23;20417;-77
2022/07/24 07:37:09;;;;;;;;;;;;;;;;;;4975240;28;20258;-76
2022/07/24 07:39:34;;;;;;;;;;;;;;;;;;4973890;28;20401;-76
2022/07/24 07:42:00;;;;;;;;;;;;;;;;;;4990019;28;19918;-77
2022/07/24 07:44:25;;;;;;;;;;;;;;;;;;4957610;28;20589;-77
2022/07/24 07:46:51;;;;;;;;;;;;;;;;;;4957662;28;19921;-77
2022/07/24 07:49:16;;;;;;;;;;;;;;;;;;4974966;28;19918;-78
2022/07/24 07:51:42;;;;;;;;;;;;;;;;;;4973646;28;20276;-77
2022/07/24 07:54:07;;;;;;;;;;;;;;;;;;4972690;28;19976;-77
2022/07/24 07:56:32;;;;;;;;;;;;;;;;;;4957551;28;19914;-77
2022/07/24 07:58:58;;;;;;;;;;;;;;;;;;4941726;28;19960;-76
2022/07/24 08:01:24;;;;;;;;;;;;;;;;;;4973500;28;19914;-77
2022/07/24 08:03:49;;;;;;;;;;;;;;;;;;4957184;28;20377;-76
2022/07/24 08:06:17;;;;;;;;;;;;;;;;;;4973719;28;19914;-77
2022/07/24 08:08:46;;;;;;;;;;;;;;;;;;4973707;28;20366;-77
2022/07/24 08:11:12;;;;;;;;;;;;;;;;;;4957294;28;19914;-76
2022/07/24 08:13:38;;;;;;;;;;;;;;;;;;4940648;28;19921;-76
2022/07/24 08:16:04;;;;;;;;;;;;;;;;;;4957254;28;19914;-76
2022/07/24 08:18:29;;;;;;;;;;;;;;;;;;4973240;28;19914;-76
2022/07/24 08:20:58;;;;;;;;;;;;;;;;;;4974363;28;19961;-77
2022/07/24 08:23:23;;;;;;;;;;;;;;;;;;4973145;28;19921;-76
2022/07/24 08:25:49;;;;;;;;;;;;;;;;;;4974516;28;20344;-76
2022/07/24 08:28:14;;;;;;;;;;;;;;;;;;4974247;28;19956;-77
2022/07/24 08:30:40;;;;;;;;;;;;;;;;;;4974131;28;19918;-77
2022/07/24 08:33:05;;;;;;;;;;;;;;;;;;4972739;28;19926;-76
2022/07/24 08:35:34;;;;;;;;;;;;;;;;;;4972817;28;19941;-77
2022/07/24 08:37:59;;;;;;;;;;;;;;;;;;4957042;28;19921;-77
2022/07/24 08:40:24;;;;;;;;;;;;;;;;;;4957043;28;19914;-77
2022/07/24 08:42:50;;;;;;;;;;;;;;;;;;4973790;28;19921;-77
2022/07/24 08:45:22;;;;;;;;;;;;;;;;;;4942589;28;19914;-76
2022/07/24 08:47:47;;;;;;;;;;;;;;;;;;4956754;28;19914;-76
2022/07/24 08:50:13;;;;;;;;;;;;;;;;;;4972502;28;19909;-76
2022/07/24 08:52:39;;;;;;;;;;;;;;;;;;4972406;28;19918;-76
2022/07/24 08:55:04;;;;;;;;;;;;;;;;;;4972499;28;19914;-76
2022/07/24 08:57:30;;;;;;;;;;;;;;;;;;4956847;28;19914;-77
2022/07/24 08:59:55;;;;;;;;;;;;;;;;;;4973696;28;19911;-76
2022/07/24 09:02:20;;;;;;;;;;;;;;;;;;4973659;28;19915;-76
2022/07/24 09:04:46;;;;;;;;;;;;;;;;;;4955230;28;19965;-77
2022/07/24 09:07:11;;;;;;;;;;;;;;;;;;4972324;28;19915;-77
2022/07/24 09:09:36;;;;;;;;;;;;;;;;;;4973622;28;19920;-76
2022/07/24 09:12:02;;;;;;;;;;;;;;;;;;4972219;28;19950;-77
2022/07/24 09:14:31;;;;;;;;;;;;;;;;;;4940267;28;19961;-76
2022/07/24 09:16:59;;;;;;;;;;;;;;;;;;4973278;28;19924;-77
2022/07/24 09:19:25;;;;;;;;;;;;;;;;;;4973301;28;19930;-77
2022/07/24 09:21:53;;;;;;;;;;;;;;;;;;4972330;28;19915;-77
2022/07/24 09:27:10;;;;;;;;;;;;;;;;;;4954402;28;19936;-78
2022/07/24 09:29:36;;;;;;;;;;;;;;;;;;4972354;28;20424;-77
2022/07/24 09:32:01;;;;;;;;;;;;;;;;;;4972139;28;20393;-78
2022/07/24 09:34:29;;;;;;;;;;;;;;;;;;4971845;28;19918;-77
2022/07/24 09:36:55;;;;;;;;;;;;;;;;;;4973352;28;20368;-77
2022/07/24 09:39:23;;;;;;;;;;;;;;;;;;4972271;28;19914;-77
2022/07/24 09:41:48;;;;;;;;;;;;;;;;;;4972051;28;19949;-77
2022/07/24 09:44:13;;;;;;;;;;;;;;;;;;4972947;28;19956;-77
2022/07/24 09:46:39;;;;;;;;;;;;;;;;;;4973016;28;19921;-77
2022/07/24 09:49:04;;;;;;;;;;;;;;;;;;4971954;28;19914;-77
2022/07/24 09:51:30;;;;;;;;;;;;;;;;;;4956224;28;20060;-77
2022/07/24 09:53:56;;;;;;;;;;;;;;;;;;4971851;28;20266;-76
2022/07/24 09:56:24;;;;;;;;;;;;;;;;;;4973121;28;19921;-77
2022/07/24 09:58:51;;;;;;;;;;;;;;;;;;4971798;28;20277;-76
2022/07/24 10:01:17;;;;;;;;;;;;;;;;;;4971724;28;20020;-76
2022/07/24 10:03:43;;;;;;;;;;;;;;;;;;4971661;28;20382;-75
2022/07/24 10:06:08;;;;;;;;;;;;;;;;;;4955933;28;20000;-75
2022/07/24 10:08:34;;;;;;;;;;;;;;;;;;4972020;28;19921;-76
2022/07/24 10:11:02;;;;;;;;;;;;;;;;;;4940007;28;19925;-77
2022/07/24 10:13:28;;;;;;;;;;;;;;;;;;4939280;28;19924;-77
2022/07/24 10:15:54;;;;;;;;;;;;;;;;;;4940314;28;19915;-77
2022/07/24 10:18:19;;;;;;;;;;;;;;;;;;4976711;28;19964;-77
2022/07/24 10:20:45;;;;;;;;;;;;;;;;;;4975615;28;19914;-78
2022/07/24 10:23:10;;;;;;;;;;;;;;;;;;4975219;28;19918;-77
2022/07/24 10:25:36;;;;;;;;;;;;;;;;;;4959301;28;19918;-77
2022/07/24 10:28:02;;;;;;;;;;;;;;;;;;4975190;28;19953;-77
2022/07/24 10:30:27;;;;;;;;;;;;;;;;;;4976450;28;20396;-77
2022/07/24 10:32:53;;;;;;;;;;;;;;;;;;4958924;28;19918;-77
2022/07/24 10:35:19;;;;;;;;;;;;;;;;;;4976132;28;19918;-77
2022/07/24 10:37:44;;;;;;;;;;;;;;;;;;4959328;28;20061;-78
2022/07/24 10:40:10;;;;;;;;;;;;;;;;;;4958903;28;20408;-78
2022/07/24 10:42:35;;;;;;;;;;;;;;;;;;4975073;28;19914;-77
2022/07/24 10:45:00;;;;;;;;;;;;;;;;;;4974980;28;19914;-77
2022/07/24 10:47:26;;;;;;;;;;;;;;;;;;4975392;28;20254;-77
2022/07/24 10:49:53;;;;;;;;;;;;;;;;;;4975144;28;20400;-77
2022/07/24 10:52:19;;;;;;;;;;;;;;;;;;4959795;28;19918;-77
2022/07/24 10:54:44;;;;;;;;;;;;;;;;;;4943302;28;19965;-77
2022/07/24 10:57:10;;;;;;;;;;;;;;;;;;4975001;28;19914;-79
2022/07/24 10:59:35;;;;;;;;;;;;;;;;;;4974889;28;19914;-79
2022/07/24 11:02:01;;;;;;;;;;;;;;;;;;4959064;28;19986;-78
2022/07/24 11:04:26;;;;;;;;;;;;;;;;;;4974609;28;20012;-77
2022/07/24 11:06:52;;;;;;;;;;;;;;;;;;4974653;28;19922;-77
2022/07/24 11:09:17;;;;;;;;;;;;;;;;;;4975520;28;20285;-78
2022/07/24 11:11:42;;;;;;;;;;;;;;;;;;4958973;28;19918;-77
2022/07/24 11:14:08;;;;;;;;;;;;;;;;;;4975657;28;20297;-77
2022/07/24 11:16:33;;;;;;;;;;;;;;;;;;4975438;28;19914;-77
2022/07/24 11:18:59;;;;;;;;;;;;;;;;;;4959194;28;20304;-77
2022/07/24 11:21:25;;;;;;;;;;;;;;;;;;4975378;28;19914;-76
2022/07/24 11:23:50;;;;;;;;;;;;;;;;;;4975138;28;20349;-76
2022/07/24 11:26:20;;;;;;;;;;;;;;;;;;4975042;28;20325;-77
2022/07/24 11:28:46;;;;;;;;;;;;;;;;;;4975565;28;19921;-77
2022/07/24 11:31:11;;;;;;;;;;;;;;;;;;4958588;28;20381;-80
2022/07/24 11:33:37;;;;;;;;;;;;;;;;;;4958896;28;19918;-77
2022/07/24 11:36:02;;;;;;;;;;;;;;;;;;4974990;28;19926;-78
2022/07/24 11:38:28;;;;;;;;;;;;;;;;;;4975750;28;20305;-77
2022/07/24 11:40:53;;;;;;;;;;;;;;;;;;4975639;28;20374;-77
2022/07/24 11:43:19;;;;;;;;;;;;;;;;;;4975387;28;19921;-77
2022/07/24 11:45:44;;;;;;;;;;;;;;;;;;4975356;28;19949;-77
2022/07/24 11:48:10;;;;;;;;;;;;;;;;;;4975386;28;19914;-78
2022/07/24 11:50:35;;;;;;;;;;;;;;;;;;4958103;28;19922;-78
2022/07/24 11:53:01;;;;;;;;;;;;;;;;;;4974893;28;20017;-79
2022/07/24 11:55:26;;;;;;;;;;;;;;;;;;4973901;28;19926;-78
2022/07/24 11:57:51;;;;;;;;;;;;;;;;;;4975168;28;19918;-78
2022/07/24 12:00:17;;;;;;;;;;;;;;;;;;4975230;28;19961;-78
2022/07/24 12:02:42;;;;;;;;;;;;;;;;;;4957413;28;19954;-78
2022/07/24 12:05:08;;;;;;;;;;;;;;;;;;4973487;28;20000;-77
2022/07/24 12:07:35;;;;;;;;;;;;;;;;;;4973394;28;19917;-78
2022/07/24 12:10:00;;;;;;;;;;;;;;;;;;4957453;28;20369;-78
2022/07/24 12:12:26;;;;;;;;;;;;;;;;;;4974491;28;19972;-77
2022/07/24 12:14:51;;;;;;;;;;;;;;;;;;4957388;28;19914;-78
2022/07/24 12:17:17;;;;;;;;;;;;;;;;;;4973819;28;19964;-78
2022/07/24 12:19:42;;;;;;;;;;;;;;;;;;4957238;28;19921;-77
2022/07/24 12:22:08;;;;;;;;;;;;;;;;;;4974399;28;19961;-78
2022/07/24 12:24:33;;;;;;;;;;;;;;;;;;4940797;28;19914;-77
2022/07/24 12:26:59;;;;;;;;;;;;;;;;;;4974304;28;19925;-78
2022/07/24 12:29:25;;;;;;;;;;;;;;;;;;4973390;28;20338;-78
2022/07/24 12:31:50;;;;;;;;;;;;;;;;;;4974137;28;20258;-77
2022/07/24 12:34:17;;;;;;;;;;;;;;;;;;4972821;28;19922;-77
2022/07/24 12:36:43;;;;;;;;;;;;;;;;;;4941183;28;19915;-77
2022/07/24 12:39:09;;;;;;;;;;;;;;;;;;4973958;28;19914;-78
2022/07/24 12:41:35;;;;;;;;;;;;;;;;;;4972581;28;19937;-78
2022/07/24 12:44:01;;;;;;;;;;;;;;;;;;4972556;28;19914;-78
2022/07/24 12:46:27;;;;;;;;;;;;;;;;;;4972741;28;19972;-78
2022/07/24 12:48:52;;;;;;;;;;;;;;;;;;4956782;28;19917;-77
2022/07/24 12:51:18;;;;;;;;;;;;;;;;;;4956715;28;20271;-78
2022/07/24 12:53:44;;;;;;;;;;;;;;;;;;4973836;28;19958;-78
2022/07/24 12:56:09;;;;;;;;;;;;;;;;;;4972517;28;20384;-77
2022/07/24 12:58:34;;;;;;;;;;;;;;;;;;4973827;28;20325;-77
2022/07/24 13:01:00;;;;;;;;;;;;;;;;;;4973988;28;19933;-77
2022/07/24 13:03:26;;;;;;;;;;;;;;;;;;4972311;28;19914;-78
2022/07/24 13:05:51;;;;;;;;;;;;;;;;;;4972783;28;19914;-77
2022/07/24 13:08:16;;;;;;;;;;;;;;;;;;4956465;28;19953;-77
2022/07/24 13:10:42;;;;;;;;;;;;;;;;;;4957198;28;19914;-77
2022/07/24 13:13:07;;;;;;;;;;;;;;;;;;4973623;28;19918;-77
2022/07/24 13:15:33;;;;;;;;;;;;;;;;;;4973896;28;19921;-79
2022/07/24 13:17:59;;;;;;;;;;;;;;;;;;4956869;28;19914;-77
2022/07/24 13:20:24;;;;;;;;;;;;;;;;;;4972635;28;19910;-77
2022/07/24 13:22:50;;;;;;;;;;;;;;;;;;4956409;28;19921;-77
2022/07/24 13:25:15;;;;;;;;;;;;;;;;;;4972524;28;19914;-76
2022/07/24 13:27:41;;;;;;;;;;;;;;;;;;4957579;28;19938;-77
2022/07/24 13:30:06;;;;;;;;;;;;;;;;;;4956610;28;20358;-77
2022/07/24 13:32:31;;;;;;;;;;;;;;;;;;4955896;28;19918;-77
2022/07/24 13:34:57;;;;;;;;;;;;;;;;;;4962258;23;20014;-81
2022/07/24 13:37:22;;;;;;;;;;;;;;;;;;4935598;29;19910;-81
2022/07/24 13:39:48;;;;;;;;;;;;;;;;;;4935875;29;19915;-82
2022/07/24 13:42:14;;;;;;;;;;;;;;;;;;4935929;29;20005;-83
2022/07/24 13:44:39;;;;;;;;;;;;;;;;;;4934867;29;19919;-82
2022/07/24 13:47:05;;;;;;;;;;;;;;;;;;4935737;29;20275;-81
2022/07/24 13:49:30;;;;;;;;;;;;;;;;;;4934656;29;20365;-82
2022/07/24 13:51:56;;;;;;;;;;;;;;;;;;4937827;29;19919;-83
2022/07/24 13:54:21;;;;;;;;;;;;;;;;;;4937918;29;20294;-83
2022/07/24 13:56:47;;;;;;;;;;;;;;;;;;4940960;29;19982;-82
2022/07/24 13:59:12;;;;;;;;;;;;;;;;;;4945188;29;19915;-82
2022/07/24 14:01:37;;;;;;;;;;;;;;;;;;4946857;29;19915;-83
2022/07/24 14:04:03;;;;;;;;;;;;;;;;;;4942943;29;19922;-81
2022/07/24 14:06:30;;;;;;;;;;;;;;;;;;4940018;29;20010;-83
2022/07/24 14:08:55;;;;;;;;;;;;;;;;;;4940762;29;19970;-83
2022/07/24 14:11:20;;;;;;;;;;;;;;;;;;4938715;29;19915;-83
2022/07/24 14:13:46;;;;;;;;;;;;;;;;;;4941053;29;19915;-81
2022/07/24 14:16:11;;;;;;;;;;;;;;;;;;4940915;29;20382;-83
2022/07/24 14:18:37;;;;;;;;;;;;;;;;;;4937514;29;19930;-82
2022/07/24 14:21:02;;;;;;;;;;;;;;;;;;4937970;29;20296;-82
2022/07/24 14:23:28;;;;;;;;;;;;;;;;;;4937475;29;19915;-81
2022/07/24 14:25:53;;;;;;;;;;;;;;;;;;4941182;29;20486;-83
2022/07/24 14:28:19;;;;;;;;;;;;;;;;;;4938492;29;19915;-83
2022/07/24 14:30:44;;;;;;;;;;;;;;;;;;4940147;29;19914;-82
2022/07/24 14:33:10;;;;;;;;;;;;;;;;;;4939080;29;20370;-82
2022/07/24 14:35:35;;;;;;;;;;;;;;;;;;4941844;29;19919;-83
2022/07/24 14:38:01;;;;;;;;;;;;;;;;;;4939747;29;20418;-82
2022/07/24 14:40:26;;;;;;;;;;;;;;;;;;4937711;29;19919;-82
2022/07/24 14:42:52;;;;;;;;;;;;;;;;;;4937146;29;20022;-82
2022/07/24 14:45:17;;;;;;;;;;;;;;;;;;4938204;29;19950;-81
2022/07/24 14:47:42;;;;;;;;;;;;;;;;;;4939802;29;19949;-82
2022/07/24 14:50:08;;;;;;;;;;;;;;;;;;4925804;29;20010;-79
2022/07/24 14:52:33;;;;;;;;;;;;;;;;;;4938226;29;19977;-80
2022/07/24 14:54:59;;;;;;;;;;;;;;;;;;4936663;29;19914;-82
2022/07/24 14:57:25;;;;;;;;;;;;;;;;;;4938375;29;19927;-81
2022/07/24 14:59:50;;;;;;;;;;;;;;;;;;4937250;29;20039;-81
2022/07/24 15:02:16;;;;;;;;;;;;;;;;;;4937996;29;20305;-81
2022/07/24 15:04:42;;;;;;;;;;;;;;;;;;4937939;29;19915;-81
2022/07/24 15:07:07;;;;;;;;;;;;;;;;;;4936803;29;19919;-81
2022/07/24 15:09:33;;;;;;;;;;;;;;;;;;4937677;29;19989;-81
2022/07/24 15:11:58;;;;;;;;;;;;;;;;;;4938397;29;20422;-81
2022/07/24 15:14:23;;;;;;;;;;;;;;;;;;4936938;29;20310;-82
2022/07/24 15:16:49;;;;;;;;;;;;;;;;;;4938338;29;19915;-80
2022/07/24 15:19:14;;;;;;;;;;;;;;;;;;4939204;29;19915;-81
2022/07/24 15:21:39;;;;;;;;;;;;;;;;;;4939060;29;20338;-81
2022/07/24 15:24:05;;;;;;;;;;;;;;;;;;4939446;29;19915;-82
2022/07/24 15:26:31;;;;;;;;;;;;;;;;;;4939124;29;19915;-81
2022/07/24 15:28:56;;;;;;;;;;;;;;;;;;4944482;29;19914;-82
2022/07/24 15:31:21;;;;;;;;;;;;;;;;;;4948816;29;19915;-82
2022/07/24 15:33:47;;;;;;;;;;;;;;;;;;4930579;29;19915;-80
2022/07/24 15:36:12;;;;;;;;;;;;;;;;;;4948522;29;19915;-81
2022/07/24 15:38:38;;;;;;;;;;;;;;;;;;4947103;29;19915;-80
2022/07/24 15:41:03;;;;;;;;;;;;;;;;;;4945863;29;19915;-80
2022/07/24 15:43:28;;;;;;;;;;;;;;;;;;4941499;29;20311;-80
2022/07/24 15:45:54;;;;;;;;;;;;;;;;;;4938050;29;19915;-81
2022/07/24 15:48:19;;;;;;;;;;;;;;;;;;4936276;29;19926;-82
2022/07/24 15:50:45;;;;;;;;;;;;;;;;;;4936154;29;19922;-84
2022/07/24 15:53:10;;;;;;;;;;;;;;;;;;4935742;29;19926;-81
2022/07/24 15:55:36;;;;;;;;;;;;;;;;;;4936286;29;19918;-81
2022/07/24 15:58:01;;;;;;;;;;;;;;;;;;4936410;29;19911;-81
2022/07/24 16:00:26;;;;;;;;;;;;;;;;;;4920721;29;20306;-81
2022/07/24 16:02:52;;;;;;;;;;;;;;;;;;4920276;29;19915;-81
2022/07/24 16:05:19;;;;;;;;;;;;;;;;;;4920426;29;19969;-81
2022/07/24 16:07:45;;;;;;;;;;;;;;;;;;4919913;29;19914;-81
2022/07/24 16:10:10;;;;;;;;;;;;;;;;;;4936361;29;20081;-81
2022/07/24 16:12:35;;;;;;;;;;;;;;;;;;4937422;29;19918;-80
2022/07/24 16:15:01;;;;;;;;;;;;;;;;;;4939041;29;19974;-81
2022/07/24 16:17:26;;;;;;;;;;;;;;;;;;4937042;29;19938;-81
2022/07/24 16:19:52;;;;;;;;;;;;;;;;;;4937964;29;19915;-81
2022/07/24 16:22:17;;;;;;;;;;;;;;;;;;4920549;29;19939;-82
2022/07/24 16:24:42;;;;;;;;;;;;;;;;;;4937554;29;19950;-82
2022/07/24 16:27:08;;;;;;;;;;;;;;;;;;4936333;29;19921;-81
2022/07/24 16:29:33;;;;;;;;;;;;;;;;;;4938439;29;19915;-81
2022/07/24 16:31:58;;;;;;;;;;;;;;;;;;4939142;29;20308;-82
2022/07/24 16:34:24;;;;;;;;;;;;;;;;;;4938836;29;19919;-81
2022/07/24 16:36:49;;;;;;;;;;;;;;;;;;4940147;29;19919;-82